Algiers, Algeria

12:28 PM CET on July 31, 2014 (GMT +0100)
Houari Boumediene (DAAG) Elev 82 ft | 36.69 °N, 3.22 °E | Change Station

Current weather conditions updated 28 minutes ago

Clear
Clear
91 °F
Feels Like 91 °F
N
7
Wind Variable Wind from North

Today is forecast to be Warmer than yesterday.

Today
High -- | Low -- °F
--% Chance of Precip.
Yesterday
High -- | Low -- °F
Precip. -- in
5:52 AM 7:55 PM
Waxing Crescent, 18% visible
Pressure 29.95 in
Visibility -9999.0 miles
Clouds
Heat Index 91 °F
Dew Point 59 °F
Humidity 34%
Rainfall 0.00 in
Snow Depth Not available.
UV Not available.
Pollen Not available.
Air Quality Not available.
Flu Activity Not available.
METAR DAAG 311100Z 01006KT 340V040 CAVOK 33/15 Q1014

More Conditions Fewer Conditions

Pressure 29.95 in
Visibility -9999.0 miles
Clouds
Heat Index 91 °F
Dew Point 59 °F
Humidity 34%
Rainfall 0.00 in
Snow Depth Not available.
UV Not available.
Pollen Not available.
Air Quality Not available.
Flu Activity Not available.
METAR DAAG 311100Z 01006KT 340V040 CAVOK 33/15 Q1014

More Conditions Fewer Conditions

10-Day Weather Forecast

Almanac

Astronomy

Jul. 31, 2014 Rise Set
Actual Time 5:52 AM CET 7:55 PM CET
Civil Twilight 5:23 AM CET 8:23 PM CET
Nautical Twilight 4:48 AM CET 8:58 PM CET
Astronomical Twilight 4:10 AM CET 9:36 PM CET
Moon 9:57 AM CET 10:08 PM CET
Length of Visible Light 15h 00m
Length of Day
14h 02m
Tomorrow will be 1m 44s shorter.
Waxing Crescent, 18% of the Moon is Illuminated
Today
Waxing Crescent
Aug 3
First Quarter
Aug 10
Full
Aug 17
Last Quarter
Aug 25
New

Yesterday's Extremes

Country Highs Country Lows

Community

WunderPhotos

Upload Photos

1,739,296 photos uploaded!

WunderBlogs® & News

Nearby

Snow Depth

Not available.

Earthquake Activity

City Distance Mag. Time & Date
No recent earthquake activity has been reported nearby.
Minimum magnitude displayed is 2.5.

Coastal Water Temperatures

Place Temperature
No Stations Reporting

Nearby Weather Stations

There are no personal weather stations in this area.